Portada
METAR-TAF:

METAR-TAF

Aeropuertos :

Broken Bow, Nebraska, Estados Unidos

latitud: 41-26N, longitud: 099-39W, altitud: 776 m

Observación

El informe se hizo hace 38 minutos, a las 00:53 UTC
Viento calma
Temperatura 13°C
Humedad 33%
Presión 1018 hPa
Visibilidad: 16.1 km
Cielo despejado

METAR: KBBW 300053Z AUTO 00000KT 10SM CLR 13/M03 A3005 RMK AO2 SLP179 T01331033

Hora: 20:31 (01:31 UTC)


TAF: falta

Observaciones y pronósticos meteorológicos de más de 4000 aeropuertos (mensajes METAR y TAF).

Los puntos amarillos y rojos representan las estaciones disponibles.

Ponga el ratón en el punto deseado para ver el nombre de la estación.

Haga clic para ver las observaciones y los pronósticos meteorológicos.

Para cambiar el mapa : haga clic en los botones verdes con una cruz de color negro para hacer un zoom, en el botón verde con un guión para alejar o en las flechas verdes para mapas adyacentes.


METAR-TAF: